createdAt,value
2018-12-16T00:01:19.001Z,101333.55
2018-12-16T00:03:48.236Z,101333.36
2018-12-16T00:06:17.348Z,101335.66
2018-12-16T00:08:44.449Z,101337.91
2018-12-16T00:11:11.943Z,101337.77
2018-12-16T00:13:39.052Z,101322.98
2018-12-16T00:16:06.103Z,101327.19
2018-12-16T00:18:33.217Z,101318.37
2018-12-16T00:21:00.495Z,101313.97
2018-12-16T00:23:27.519Z,101309.02
2018-12-16T00:25:54.573Z,101302.16
2018-12-16T00:28:21.878Z,101307.45
2018-12-16T00:30:48.909Z,101307.42
2018-12-16T00:33:15.991Z,101309.38
2018-12-16T00:35:43.089Z,101309.53
2018-12-16T00:38:10.244Z,101292.29
2018-12-16T00:40:37.657Z,101293.16
2018-12-16T00:43:05.187Z,101295.45
2018-12-16T00:45:32.197Z,101286.45
2018-12-16T00:47:59.231Z,101285.38
2018-12-16T00:50:26.422Z,101290.00
2018-12-16T00:52:53.514Z,101285.23
2018-12-16T00:55:20.922Z,101283.86
2018-12-16T00:57:48.012Z,101286.64
2018-12-16T01:00:15.657Z,101284.50
2018-12-16T01:02:43.394Z,101285.58
2018-12-16T01:05:10.810Z,101287.34
2018-12-16T01:07:38.273Z,101286.15
2018-12-16T01:10:05.566Z,101292.16
2018-12-16T01:12:33.290Z,101287.74
2018-12-16T01:15:00.674Z,101288.81
2018-12-16T01:17:27.703Z,101283.30
2018-12-16T01:19:55.191Z,101273.42
2018-12-16T01:22:22.221Z,101279.06
2018-12-16T01:24:49.255Z,101283.47
2018-12-16T01:27:16.398Z,101274.66
2018-12-16T01:29:43.615Z,101275.03
2018-12-16T01:32:10.653Z,101275.36
2018-12-16T01:34:38.191Z,101270.80
2018-12-16T01:37:05.665Z,101270.29
2018-12-16T01:39:32.730Z,101266.27
2018-12-16T01:42:00.154Z,101258.52
2018-12-16T01:44:27.189Z,101262.92
2018-12-16T01:46:54.604Z,101255.34
2018-12-16T01:49:21.656Z,101258.16
2018-12-16T01:51:48.681Z,101250.77
2018-12-16T01:54:15.698Z,101252.20
2018-12-16T01:56:42.794Z,101248.31
2018-12-16T01:59:09.918Z,101238.09
2018-12-16T02:04:21.953Z,101219.81
2018-12-16T02:06:49.079Z,101220.69
2018-12-16T02:09:16.712Z,101211.91
2018-12-16T02:11:43.756Z,101201.69
2018-12-16T02:14:10.893Z,101197.99
2018-12-16T02:16:38.309Z,101188.30
2018-12-16T02:19:06.085Z,101184.08
2018-12-16T02:21:33.228Z,101179.31
2018-12-16T02:24:00.353Z,101166.11
2018-12-16T02:26:27.486Z,101167.20
2018-12-16T02:28:54.533Z,101159.08
2018-12-16T02:31:22.116Z,101152.92
2018-12-16T02:33:49.171Z,101156.78
2018-12-16T02:36:16.491Z,101150.30
2018-12-16T02:38:43.504Z,101145.36
2018-12-16T02:41:11.027Z,101146.25
2018-12-16T02:43:38.203Z,101149.94
2018-12-16T02:46:05.446Z,101143.07
2018-12-16T02:48:32.576Z,101142.19
2018-12-16T02:50:59.627Z,101140.95
2018-12-16T02:53:27.285Z,101143.58
2018-12-16T02:55:54.339Z,101134.80
2018-12-16T02:58:21.366Z,101128.80
2018-12-16T03:00:48.528Z,101123.51
2018-12-16T03:03:15.551Z,101132.86
2018-12-16T03:05:43.115Z,101132.33
2018-12-16T03:08:10.166Z,101112.63
2018-12-16T03:10:37.187Z,101092.06
2018-12-16T03:13:04.213Z,101101.64
2018-12-16T03:15:31.811Z,101105.88
2018-12-16T03:17:58.870Z,101099.37
2018-12-16T03:20:26.014Z,101096.91
2018-12-16T03:23:00.079Z,101096.73
2018-12-16T03:25:27.109Z,101098.48
2018-12-16T03:27:54.454Z,101094.03
2018-12-16T03:30:23.367Z,101093.34
2018-12-16T03:32:50.663Z,101087.03
2018-12-16T03:35:17.845Z,101079.13
2018-12-16T03:37:45.035Z,101074.22
2018-12-16T03:40:12.303Z,101074.25
2018-12-16T03:42:39.450Z,101064.23
2018-12-16T03:45:06.853Z,101054.53
2018-12-16T03:47:34.083Z,101051.38
2018-12-16T03:50:01.270Z,101042.55
2018-12-16T03:52:28.606Z,101042.69
2018-12-16T03:54:55.693Z,101034.93
2018-12-16T03:57:22.730Z,101024.05
2018-12-16T03:59:50.193Z,101023.69
2018-12-16T04:02:17.226Z,101018.89
2018-12-16T04:04:44.358Z,101012.77
2018-12-16T04:07:11.666Z,101005.21
2018-12-16T04:09:38.692Z,101000.06
2018-12-16T04:12:06.027Z,100998.55
2018-12-16T04:14:33.209Z,100982.51
2018-12-16T04:17:00.242Z,100979.46
2018-12-16T04:19:27.658Z,100979.42
2018-12-16T04:21:55.085Z,100965.35
2018-12-16T04:24:22.094Z,100959.06
2018-12-16T04:26:49.129Z,100954.51
2018-12-16T04:29:16.528Z,100951.70
2018-12-16T04:31:43.559Z,100938.31
2018-12-16T04:34:10.939Z,100926.33
2018-12-16T04:36:38.018Z,100936.75
2018-12-16T04:39:05.984Z,100932.02
2018-12-16T04:41:35.005Z,100930.27
2018-12-16T04:44:02.267Z,100927.22
2018-12-16T04:46:29.306Z,100925.98
2018-12-16T04:48:56.342Z,100939.71
2018-12-16T04:51:23.873Z,100935.49
2018-12-16T04:53:50.881Z,100946.00
2018-12-16T04:56:17.958Z,100942.52
2018-12-16T04:58:45.218Z,100949.53
2018-12-16T05:01:12.230Z,100935.45
2018-12-16T05:03:39.743Z,100927.31
2018-12-16T05:06:07.431Z,100943.36
2018-12-16T05:08:34.891Z,100938.56
2018-12-16T05:11:02.319Z,100926.72
2018-12-16T05:13:30.181Z,100936.38
2018-12-16T05:15:58.174Z,100932.11
2018-12-16T05:18:25.478Z,100929.98
2018-12-16T05:20:52.518Z,100932.56
2018-12-16T05:23:19.545Z,100925.55
2018-12-16T05:25:46.599Z,100915.89
2018-12-16T05:28:13.742Z,100919.88
2018-12-16T05:30:41.543Z,100913.03
2018-12-16T05:33:08.958Z,100904.09
2018-12-16T05:35:35.987Z,100900.43
2018-12-16T05:38:04.227Z,100898.14
2018-12-16T05:40:31.488Z,100892.19
2018-12-16T05:42:58.537Z,100890.82
2018-12-16T05:45:25.565Z,100881.59
2018-12-16T05:47:52.587Z,100877.56
2018-12-16T05:50:20.145Z,100878.23
2018-12-16T05:52:47.494Z,100877.39
2018-12-16T05:55:14.553Z,100880.19
2018-12-16T05:57:41.593Z,100881.06
2018-12-16T06:00:08.866Z,100877.31
2018-12-16T06:02:35.926Z,100877.31
2018-12-16T06:05:03.458Z,100859.20
2018-12-16T06:07:30.586Z,100854.77
2018-12-16T06:09:57.726Z,100841.60
2018-12-16T06:12:24.781Z,100838.11
2018-12-16T06:14:51.837Z,100831.80
2018-12-16T06:17:18.891Z,100825.16
2018-12-16T06:19:46.334Z,100812.49
2018-12-16T06:22:13.378Z,100816.20
2018-12-16T06:24:41.530Z,100814.81
2018-12-16T06:27:09.006Z,100819.67
2018-12-16T06:29:36.663Z,100826.03
2018-12-16T06:32:03.798Z,100825.12
2018-12-16T06:34:31.289Z,100829.61
2018-12-16T06:36:58.843Z,100830.63
2018-12-16T06:39:25.885Z,100832.67
2018-12-16T06:41:52.938Z,100831.78
2018-12-16T06:44:19.953Z,100828.27
2018-12-16T06:46:47.002Z,100825.44
2018-12-16T06:49:14.514Z,100820.91
2018-12-16T06:51:41.571Z,100818.03
2018-12-16T06:54:08.601Z,100824.83
2018-12-16T06:56:35.966Z,100822.39
2018-12-16T06:59:03.111Z,100831.91
2018-12-16T07:01:30.135Z,100830.96
2018-12-16T07:03:57.174Z,100828.38
2018-12-16T07:06:24.201Z,100825.19
2018-12-16T07:08:51.219Z,100815.11
2018-12-16T07:11:19.068Z,100820.91
2018-12-16T07:13:46.102Z,100810.17
2018-12-16T07:16:13.236Z,100816.55
2018-12-16T07:18:40.385Z,100815.77
2018-12-16T07:21:07.467Z,100811.73
2018-12-16T07:23:34.799Z,100817.14
2018-12-16T07:26:01.931Z,100822.47
2018-12-16T07:28:29.094Z,100821.42
2018-12-16T07:30:56.209Z,100826.53
2018-12-16T07:33:23.579Z,100816.55
2018-12-16T07:35:50.671Z,100819.31
2018-12-16T07:38:17.897Z,100825.30
2018-12-16T07:40:45.012Z,100831.62
2018-12-16T07:43:12.142Z,100825.78
2018-12-16T07:45:39.663Z,100822.17
2018-12-16T07:48:06.948Z,100821.35
2018-12-16T07:50:34.054Z,100819.47
2018-12-16T07:53:01.059Z,100821.48
2018-12-16T07:55:28.209Z,100817.64
2018-12-16T07:57:55.502Z,100813.30
2018-12-16T08:00:22.548Z,100812.28
2018-12-16T08:02:49.630Z,100815.07
2018-12-16T08:05:16.781Z,100815.07
2018-12-16T08:07:44.378Z,100807.92
2018-12-16T08:10:11.438Z,100806.00
2018-12-16T08:12:38.466Z,100801.06
2018-12-16T08:15:06.106Z,100798.59
2018-12-16T08:17:33.611Z,100792.64
2018-12-16T08:20:01.084Z,100799.47
2018-12-16T08:22:28.173Z,100792.72
2018-12-16T08:24:55.243Z,100791.98
2018-12-16T08:27:22.548Z,100792.29
2018-12-16T08:29:49.781Z,100793.08
2018-12-16T08:32:16.826Z,100801.12
2018-12-16T08:34:44.173Z,100792.89
2018-12-16T08:37:11.190Z,100783.98
2018-12-16T08:39:38.211Z,100773.58
2018-12-16T08:42:05.948Z,100778.10
2018-12-16T08:44:32.985Z,100776.11
2018-12-16T08:47:00.017Z,100771.88
2018-12-16T08:49:27.056Z,100773.96
2018-12-16T08:51:54.186Z,100781.81
2018-12-16T08:54:21.706Z,100785.58
2018-12-16T08:56:49.027Z,100784.79
2018-12-16T08:59:16.040Z,100776.19
2018-12-16T09:01:43.062Z,100780.53
2018-12-16T09:04:11.218Z,100773.10
2018-12-16T09:06:38.247Z,100768.81
2018-12-16T09:09:07.423Z,100772.54
2018-12-16T09:11:36.397Z,100771.36
2018-12-16T09:14:03.574Z,100767.37
2018-12-16T09:16:30.768Z,100769.02
2018-12-16T09:18:57.849Z,100771.52
2018-12-16T09:21:25.053Z,100770.86
2018-12-16T09:23:52.127Z,100770.27
2018-12-16T09:26:19.218Z,100770.09
2018-12-16T09:28:46.253Z,100763.24
2018-12-16T09:31:13.294Z,100768.42
2018-12-16T09:33:40.310Z,100761.98
2018-12-16T09:36:07.352Z,100761.44
2018-12-16T09:38:34.529Z,100766.59
2018-12-16T09:41:01.540Z,100763.23
2018-12-16T09:43:28.681Z,100758.61
2018-12-16T09:45:56.024Z,100756.44
2018-12-16T09:48:23.153Z,100750.66
2018-12-16T09:50:50.228Z,100751.78
2018-12-16T09:53:17.241Z,100741.80
2018-12-16T09:55:44.250Z,100742.80
2018-12-16T09:58:11.295Z,100729.97
2018-12-16T10:00:38.403Z,100729.22
2018-12-16T10:03:05.418Z,100724.07
2018-12-16T10:05:32.689Z,100720.92
2018-12-16T10:08:06.642Z,100710.66
2018-12-16T10:10:33.882Z,100710.45
2018-12-16T10:13:00.943Z,100710.92
2018-12-16T10:15:29.219Z,100714.76
2018-12-16T10:17:56.537Z,100721.30
2018-12-16T10:20:23.678Z,100718.14
2018-12-16T10:22:51.089Z,100709.28
2018-12-16T10:25:18.598Z,100712.19
2018-12-16T10:27:45.624Z,100711.41
2018-12-16T10:30:12.754Z,100702.14
2018-12-16T10:32:39.965Z,100701.33
2018-12-16T10:35:07.526Z,100698.59
2018-12-16T10:37:34.982Z,100688.42
2018-12-16T10:40:02.126Z,100686.83
2018-12-16T10:42:30.557Z,100684.64
2018-12-16T10:44:58.064Z,100683.96
2018-12-16T10:47:25.132Z,100694.03
2018-12-16T10:49:52.197Z,100689.82
2018-12-16T10:52:19.359Z,100691.95
2018-12-16T10:54:47.586Z,100680.36
2018-12-16T10:57:14.724Z,100674.81
2018-12-16T10:59:41.879Z,100677.63
2018-12-16T11:02:09.008Z,100676.59
2018-12-16T11:04:36.026Z,100670.78
2018-12-16T11:07:03.347Z,100665.38
2018-12-16T11:09:30.397Z,100660.71
2018-12-16T11:11:57.415Z,100654.91
2018-12-16T11:14:24.664Z,100657.11
2018-12-16T11:16:51.760Z,100663.94
2018-12-16T11:19:19.063Z,100668.44
2018-12-16T11:21:46.130Z,100654.22
2018-12-16T11:24:13.155Z,100662.88
2018-12-16T11:26:40.301Z,100655.30
2018-12-16T11:29:07.369Z,100656.80
2018-12-16T11:31:34.524Z,100656.89
2018-12-16T11:34:01.540Z,100629.76
2018-12-16T11:36:28.806Z,100649.00
2018-12-16T11:38:55.815Z,100642.20
2018-12-16T11:41:23.124Z,100644.89
2018-12-16T11:43:50.611Z,100637.62
2018-12-16T11:46:17.636Z,100630.66
2018-12-16T11:48:44.667Z,100622.61
2018-12-16T11:51:11.748Z,100632.21
2018-12-16T11:53:39.107Z,100624.74
2018-12-16T11:56:06.270Z,100626.13
2018-12-16T11:58:33.764Z,100623.48
2018-12-16T12:01:01.880Z,100627.02
2018-12-16T12:03:30.943Z,100615.34
2018-12-16T12:06:00.090Z,100610.25
2018-12-16T12:08:27.119Z,100612.91
2018-12-16T12:10:54.129Z,100605.91
2018-12-16T12:13:21.177Z,100599.73
2018-12-16T12:15:48.330Z,100603.37
2018-12-16T12:18:15.364Z,100607.73
2018-12-16T12:20:42.381Z,100602.20
2018-12-16T12:23:09.446Z,100600.18
2018-12-16T12:25:36.642Z,100594.81
2018-12-16T12:28:04.499Z,100595.19
2018-12-16T12:30:31.823Z,100597.41
2018-12-16T12:32:58.969Z,100598.14
2018-12-16T12:35:25.989Z,100603.39
2018-12-16T12:37:53.159Z,100592.58
2018-12-16T12:40:20.206Z,100589.41
2018-12-16T12:42:47.217Z,100593.01
2018-12-16T12:45:14.409Z,100590.52
2018-12-16T12:47:42.084Z,100591.91
2018-12-16T12:50:09.138Z,100595.22
2018-12-16T12:52:36.290Z,100601.25
2018-12-16T12:55:04.240Z,100596.63
2018-12-16T12:57:31.272Z,100599.27
2018-12-16T12:59:59.442Z,100592.30
2018-12-16T13:02:26.914Z,100595.08
2018-12-16T13:04:53.941Z,100594.35
2018-12-16T13:07:20.955Z,100593.34
2018-12-16T13:09:48.001Z,100591.57
2018-12-16T13:12:15.045Z,100592.00
2018-12-16T13:14:42.045Z,100584.14
2018-12-16T13:17:09.404Z,100592.00
2018-12-16T13:19:36.422Z,100579.79
2018-12-16T13:22:03.795Z,100584.41
2018-12-16T13:24:30.874Z,100586.94
2018-12-16T13:27:04.592Z,100579.36
2018-12-16T13:29:31.604Z,100578.55
2018-12-16T13:31:58.633Z,100580.84
2018-12-16T13:34:26.062Z,100577.38
2018-12-16T13:36:53.085Z,100578.72
2018-12-16T13:39:20.171Z,100574.23
2018-12-16T13:41:47.205Z,100576.39
2018-12-16T13:44:14.422Z,100574.29
2018-12-16T13:46:41.602Z,100573.90
2018-12-16T13:49:09.934Z,100565.87
2018-12-16T13:51:36.949Z,100568.14
2018-12-16T13:54:04.358Z,100565.34
2018-12-16T13:56:31.765Z,100563.06
2018-12-16T13:58:59.005Z,100569.72
2018-12-16T14:01:32.949Z,100571.63
2018-12-16T14:04:00.113Z,100572.77
2018-12-16T14:06:27.276Z,100568.73
2018-12-16T14:08:54.593Z,100576.89
2018-12-16T14:11:21.610Z,100579.00
2018-12-16T14:13:48.629Z,100573.44
2018-12-16T14:16:15.692Z,100574.98
2018-12-16T14:18:42.926Z,100569.55
2018-12-16T14:21:09.965Z,100576.14
2018-12-16T14:23:37.016Z,100577.06
2018-12-16T14:26:04.170Z,100574.54
2018-12-16T14:28:31.378Z,100578.30
2018-12-16T14:30:58.438Z,100579.73
2018-12-16T14:33:25.935Z,100581.41
2018-12-16T14:35:53.067Z,100583.55
2018-12-16T14:38:20.305Z,100572.58
2018-12-16T14:40:47.341Z,100571.40
2018-12-16T14:43:14.371Z,100573.67
2018-12-16T14:45:41.494Z,100580.77
2018-12-16T14:48:08.530Z,100576.47
2018-12-16T14:50:35.777Z,100575.23
2018-12-16T14:53:02.818Z,100578.42
2018-12-16T14:55:29.956Z,100574.55
2018-12-16T14:57:57.118Z,100573.02
2018-12-16T15:00:24.137Z,100582.31
2018-12-16T15:02:51.494Z,100584.41
2018-12-16T15:05:21.623Z,100588.73
2018-12-16T15:07:48.638Z,100587.25
2018-12-16T15:10:15.821Z,100587.53
2018-12-16T15:12:42.937Z,100580.59
2018-12-16T15:15:10.704Z,100590.66
2018-12-16T15:17:42.692Z,100596.48
2018-12-16T15:20:07.657Z,100597.63
2018-12-16T15:22:34.914Z,100592.70
2018-12-16T15:25:02.073Z,100594.08
2018-12-16T15:27:29.191Z,100591.83
2018-12-16T15:29:56.217Z,100594.23
2018-12-16T15:32:23.259Z,100595.48
2018-12-16T15:34:51.013Z,100592.34
2018-12-16T15:37:18.339Z,100595.78
2018-12-16T15:39:45.394Z,100597.21
2018-12-16T15:42:13.025Z,100601.95
2018-12-16T15:44:40.158Z,100592.41
2018-12-16T15:47:07.237Z,100594.52
2018-12-16T15:49:34.275Z,100598.71
2018-12-16T15:52:01.420Z,100600.75
2018-12-16T15:54:28.559Z,100602.19
2018-12-16T15:56:55.693Z,100596.94
2018-12-16T15:59:22.928Z,100598.44
2018-12-16T16:01:50.334Z,100599.87
2018-12-16T16:04:17.417Z,100590.85
2018-12-16T16:06:44.546Z,100592.14
2018-12-16T16:09:11.758Z,100599.72
2018-12-16T16:11:39.043Z,100596.16
2018-12-16T16:14:06.188Z,100600.55
2018-12-16T16:16:33.219Z,100598.59
2018-12-16T16:19:01.356Z,100603.47
2018-12-16T16:21:29.314Z,100608.30
2018-12-16T16:23:56.551Z,100616.02
2018-12-16T16:26:23.575Z,100613.12
2018-12-16T16:28:50.590Z,100613.27
2018-12-16T16:31:17.750Z,100620.53
2018-12-16T16:33:45.156Z,100619.84
2018-12-16T16:36:12.275Z,100615.64
2018-12-16T16:38:39.325Z,100628.48
2018-12-16T16:41:06.466Z,100623.19
2018-12-16T16:43:33.850Z,100616.24
2018-12-16T16:46:01.062Z,100622.91
2018-12-16T16:48:28.202Z,100623.50
2018-12-16T16:50:55.339Z,100618.47
2018-12-16T16:53:22.929Z,100617.29
2018-12-16T16:55:50.693Z,100613.45
2018-12-16T16:58:17.734Z,100622.22
2018-12-16T17:00:44.785Z,100622.83
2018-12-16T17:03:11.804Z,100636.03
2018-12-16T17:05:39.135Z,100635.88
2018-12-16T17:08:06.178Z,100630.95
2018-12-16T17:10:33.213Z,100622.50
2018-12-16T17:13:00.261Z,100623.59
2018-12-16T17:15:27.322Z,100619.44
2018-12-16T17:17:54.395Z,100617.80
2018-12-16T17:20:21.446Z,100614.42
2018-12-16T17:22:48.676Z,100619.40
2018-12-16T17:25:15.700Z,100616.02
2018-12-16T17:27:42.933Z,100620.53
2018-12-16T17:30:10.549Z,100621.08
2018-12-16T17:32:38.793Z,100617.52
2018-12-16T17:35:06.087Z,100618.08
2018-12-16T17:37:33.429Z,100620.45
2018-12-16T17:40:00.926Z,100626.23
2018-12-16T17:42:28.118Z,100617.29
2018-12-16T17:44:55.257Z,100620.67
2018-12-16T17:47:22.437Z,100629.08
2018-12-16T17:49:49.472Z,100635.52
2018-12-16T17:52:16.716Z,100633.97
2018-12-16T17:54:44.765Z,100631.36
2018-12-16T17:57:12.095Z,100631.25
2018-12-16T17:59:40.470Z,100625.59
2018-12-16T18:02:07.526Z,100636.83
2018-12-16T18:04:34.831Z,100638.07
2018-12-16T18:07:02.137Z,100643.10
2018-12-16T18:09:29.381Z,100653.53
2018-12-16T18:11:56.637Z,100646.89
2018-12-16T18:14:24.081Z,100647.90
2018-12-16T18:16:51.202Z,100648.58
2018-12-16T18:19:18.214Z,100644.30
2018-12-16T18:21:45.256Z,100641.73
2018-12-16T18:24:12.383Z,100642.69
2018-12-16T18:26:44.019Z,100650.73
2018-12-16T18:29:08.553Z,100648.36
2018-12-16T18:31:35.760Z,100648.30
2018-12-16T18:34:02.908Z,100645.30
2018-12-16T18:36:30.582Z,100642.23
2018-12-16T18:38:57.702Z,100637.85
2018-12-16T18:41:24.745Z,100638.67
2018-12-16T18:43:51.941Z,100644.74
2018-12-16T18:46:18.977Z,100650.03
2018-12-16T18:48:46.028Z,100654.78
2018-12-16T18:51:13.061Z,100664.77
2018-12-16T18:53:40.293Z,100652.80
2018-12-16T18:56:07.434Z,100658.29
2018-12-16T18:58:35.130Z,100659.36
2018-12-16T19:01:02.153Z,100659.16
2018-12-16T19:03:30.309Z,100663.98
2018-12-16T19:05:57.351Z,100654.11
2018-12-16T19:08:24.359Z,100651.59
2018-12-16T19:10:51.732Z,100656.72
2018-12-16T19:13:18.789Z,100664.62
2018-12-16T19:15:45.805Z,100663.38
2018-12-16T19:18:12.827Z,100669.20
2018-12-16T19:20:40.990Z,100669.34
2018-12-16T19:23:08.179Z,100671.65
2018-12-16T19:25:35.409Z,100665.41
2018-12-16T19:28:02.555Z,100673.19
2018-12-16T19:30:29.693Z,100669.41
2018-12-16T19:32:57.475Z,100666.61
2018-12-16T19:35:24.529Z,100675.72
2018-12-16T19:37:51.538Z,100676.14
2018-12-16T19:40:18.572Z,100675.16
2018-12-16T19:42:45.890Z,100676.80
2018-12-16T19:45:13.085Z,100681.91
2018-12-16T19:47:40.314Z,100679.08
2018-12-16T19:50:08.101Z,100679.59
2018-12-16T19:52:35.117Z,100679.42
2018-12-16T19:55:03.123Z,100681.98
2018-12-16T19:57:30.268Z,100691.58
2018-12-16T19:59:57.315Z,100689.20
2018-12-16T20:02:24.385Z,100693.23
2018-12-16T20:04:57.578Z,100691.04
2018-12-16T20:07:24.767Z,100687.39
2018-12-16T20:09:51.814Z,100692.13
2018-12-16T20:12:20.374Z,100687.69
2018-12-16T20:14:54.303Z,100690.53
2018-12-16T20:17:21.328Z,100691.80
2018-12-16T20:19:48.358Z,100697.64
2018-12-16T20:22:15.415Z,100700.80
2018-12-16T20:24:42.455Z,100703.08
2018-12-16T20:27:12.107Z,100706.64
2018-12-16T20:29:40.332Z,100704.42
2018-12-16T20:32:07.616Z,100703.36
2018-12-16T20:34:34.644Z,100700.61
2018-12-16T20:37:01.855Z,100704.67
2018-12-16T20:39:29.281Z,100702.66
2018-12-16T20:41:56.358Z,100704.43
2018-12-16T20:44:23.925Z,100700.88
2018-12-16T20:46:51.004Z,100698.70
2018-12-16T20:49:18.450Z,100703.55
2018-12-16T20:51:45.476Z,100712.81
2018-12-16T20:54:12.525Z,100714.66
2018-12-16T20:56:39.541Z,100722.64
2018-12-16T20:59:06.823Z,100711.53
2018-12-16T21:01:34.086Z,100712.04
2018-12-16T21:04:01.136Z,100709.53
2018-12-16T21:06:28.197Z,100711.20
2018-12-16T21:08:56.357Z,100713.73
2018-12-16T21:11:29.454Z,100718.45
2018-12-16T21:14:02.216Z,100715.73
2018-12-16T21:16:35.468Z,100719.59
2018-12-16T21:19:02.850Z,100716.36
2018-12-16T21:21:30.344Z,100712.48
2018-12-16T21:23:57.918Z,100707.84
2018-12-16T21:26:25.169Z,100717.34
2018-12-16T21:28:52.283Z,100726.55
2018-12-16T21:31:19.409Z,100736.97
2018-12-16T21:33:46.918Z,100738.75
2018-12-16T21:36:13.966Z,100741.17
2018-12-16T21:38:41.001Z,100745.49
2018-12-16T21:41:08.033Z,100738.56
2018-12-16T21:43:35.732Z,100746.58
2018-12-16T21:46:02.781Z,100748.45
2018-12-16T21:48:29.914Z,100742.28
2018-12-16T21:50:57.098Z,100746.68
2018-12-16T21:53:25.143Z,100749.95
2018-12-16T21:55:52.320Z,100756.38
2018-12-16T21:58:19.641Z,100755.64
2018-12-16T22:00:46.890Z,100757.89
2018-12-16T22:03:14.117Z,100759.42
2018-12-16T22:05:41.927Z,100764.13
2018-12-16T22:08:09.374Z,100760.28
2018-12-16T22:10:36.482Z,100762.03
2018-12-16T22:13:03.715Z,100768.84
2018-12-16T22:15:30.839Z,100767.62
2018-12-16T22:17:57.951Z,100765.91
2018-12-16T22:20:25.322Z,100774.73
2018-12-16T22:22:52.449Z,100768.84
2018-12-16T22:25:19.717Z,100765.73
2018-12-16T22:27:47.070Z,100765.63
2018-12-16T22:30:14.379Z,100772.59
2018-12-16T22:32:41.410Z,100773.23
2018-12-16T22:35:08.618Z,100774.18
2018-12-16T22:37:35.789Z,100775.05
2018-12-16T22:40:04.199Z,100767.41
2018-12-16T22:42:31.274Z,100766.17
2018-12-16T22:44:58.309Z,100764.67
2018-12-16T22:47:25.830Z,100761.96
2018-12-16T22:49:52.842Z,100760.91
2018-12-16T22:52:20.209Z,100763.70
2018-12-16T22:54:47.519Z,100765.66
2018-12-16T22:57:14.538Z,100775.23
2018-12-16T22:59:41.570Z,100782.92
2018-12-16T23:02:08.771Z,100785.22
2018-12-16T23:04:35.938Z,100780.28
2018-12-16T23:07:03.089Z,100775.30
2018-12-16T23:09:30.217Z,100767.95
2018-12-16T23:11:57.679Z,100775.95
2018-12-16T23:14:24.961Z,100779.37
2018-12-16T23:16:52.173Z,100781.88
2018-12-16T23:19:19.370Z,100783.25
2018-12-16T23:21:46.419Z,100780.39
2018-12-16T23:24:15.470Z,100778.60
2018-12-16T23:26:44.693Z,100775.70
2018-12-16T23:29:13.846Z,100773.13
2018-12-16T23:31:42.001Z,100776.25
2018-12-16T23:34:11.513Z,100773.89
2018-12-16T23:36:41.224Z,100779.66
2018-12-16T23:39:10.883Z,100783.77
2018-12-16T23:41:39.662Z,100777.20
2018-12-16T23:44:11.640Z,100788.41
2018-12-16T23:46:39.094Z,100784.45
2018-12-16T23:49:06.171Z,100784.45
2018-12-16T23:51:33.270Z,100786.41
2018-12-16T23:54:00.393Z,100788.77
2018-12-16T23:56:27.513Z,100792.47
2018-12-16T23:58:54.598Z,100791.34
